createdAt,value
2022-10-15T00:01:41.802Z,0.57
2022-10-15T00:04:08.984Z,0.60
2022-10-15T00:06:36.447Z,0.70
2022-10-15T00:09:04.654Z,0.75
2022-10-15T00:11:31.976Z,0.60
2022-10-15T00:14:00.277Z,0.47
2022-10-15T00:16:29.175Z,0.50
2022-10-15T00:18:58.485Z,0.70
2022-10-15T00:21:26.182Z,0.60
2022-10-15T00:23:53.396Z,0.70
2022-10-15T00:26:25.627Z,0.60
2022-10-15T00:28:55.349Z,0.40
2022-10-15T00:31:26.455Z,0.50
2022-10-15T00:33:56.293Z,0.50
2022-10-15T00:36:31.171Z,0.50
2022-10-15T00:38:58.786Z,0.50
2022-10-15T00:41:31.397Z,0.43
2022-10-15T00:44:18.486Z,0.40
2022-10-15T00:46:45.776Z,0.40
2022-10-15T00:49:15.896Z,0.40
2022-10-15T00:51:57.782Z,0.40
2022-10-15T00:54:27.754Z,0.50
2022-10-15T00:56:55.958Z,0.50
2022-10-15T00:59:25.761Z,0.60
2022-10-15T01:01:54.824Z,0.40
2022-10-15T01:04:23.772Z,0.52
2022-10-15T01:06:50.985Z,0.40
2022-10-15T01:09:18.286Z,0.50
2022-10-15T01:11:48.619Z,0.50
2022-10-15T01:14:40.831Z,0.50
2022-10-15T01:17:52.670Z,0.75
2022-10-15T01:20:27.070Z,0.60
2022-10-15T01:23:15.626Z,0.40
2022-10-15T01:26:26.147Z,0.40
2022-10-15T01:29:26.976Z,0.50
2022-10-15T01:31:54.409Z,0.50
2022-10-15T01:34:35.100Z,0.52
2022-10-15T01:37:12.151Z,1.05
2022-10-15T01:39:54.837Z,0.40
2022-10-15T01:42:31.794Z,0.70
2022-10-15T01:45:06.097Z,0.50
2022-10-15T01:47:55.363Z,0.70
2022-10-15T01:50:26.655Z,0.50
2022-10-15T01:52:56.627Z,0.50
2022-10-15T01:55:26.643Z,0.60
2022-10-15T01:57:57.841Z,0.68
2022-10-15T02:00:25.719Z,0.55
2022-10-15T02:02:52.832Z,0.50
2022-10-15T02:05:29.913Z,0.60
2022-10-15T02:08:21.029Z,0.60
2022-10-15T02:11:04.399Z,0.68
2022-10-15T02:13:50.191Z,0.50
2022-10-15T02:16:23.638Z,0.60
2022-10-15T02:19:32.916Z,0.50
2022-10-15T02:22:11.275Z,0.45
2022-10-15T02:25:02.529Z,0.57
2022-10-15T02:27:31.379Z,0.40
2022-10-15T02:30:00.432Z,0.50
2022-10-15T02:32:28.814Z,0.40
2022-10-15T02:34:56.631Z,0.50
2022-10-15T02:37:26.933Z,0.30
2022-10-15T02:39:54.496Z,0.50
2022-10-15T02:42:22.224Z,0.60
2022-10-15T02:44:49.674Z,0.50
2022-10-15T02:47:17.048Z,0.90
2022-10-15T02:49:44.166Z,0.50
2022-10-15T02:52:11.523Z,0.55
2022-10-15T02:54:38.747Z,0.65
2022-10-15T02:57:06.006Z,0.60
2022-10-15T02:59:33.138Z,0.60
2022-10-15T03:02:01.477Z,0.60
2022-10-15T03:04:29.388Z,0.47
2022-10-15T03:06:56.616Z,0.55
2022-10-15T03:09:23.895Z,0.40
2022-10-15T03:11:50.976Z,0.68
2022-10-15T03:14:18.136Z,0.50
2022-10-15T03:16:45.597Z,0.65
2022-10-15T03:19:13.350Z,0.73
2022-10-15T03:21:41.074Z,0.73
2022-10-15T03:24:12.581Z,0.70
2022-10-15T03:26:39.978Z,0.60
2022-10-15T03:29:08.207Z,0.60
2022-10-15T03:31:41.884Z,0.60
2022-10-15T03:34:09.665Z,0.52
2022-10-15T03:36:36.958Z,0.70
2022-10-15T03:39:08.466Z,0.70
2022-10-15T03:41:36.927Z,0.93
2022-10-15T03:44:07.872Z,0.60
2022-10-15T03:46:37.539Z,0.70
2022-10-15T03:49:04.705Z,0.70
2022-10-15T03:51:32.018Z,0.63
2022-10-15T03:54:05.845Z,0.80
2022-10-15T03:56:39.318Z,0.55
2022-10-15T03:59:21.257Z,0.65
2022-10-15T04:01:56.443Z,0.88
2022-10-15T04:04:24.410Z,0.52
2022-10-15T04:06:51.663Z,0.60
2022-10-15T04:09:19.813Z,0.60
2022-10-15T04:11:46.993Z,0.60
2022-10-15T04:14:14.552Z,0.60
2022-10-15T04:16:42.749Z,0.68
2022-10-15T04:19:16.147Z,0.80
2022-10-15T04:21:47.273Z,0.80
2022-10-15T04:24:27.728Z,0.60
2022-10-15T04:26:54.936Z,0.50
2022-10-15T04:29:22.195Z,0.52
2022-10-15T04:31:50.256Z,0.70
2022-10-15T04:34:17.406Z,0.60
2022-10-15T04:36:44.606Z,0.60
2022-10-15T04:39:16.011Z,0.68
2022-10-15T04:41:44.512Z,0.60
2022-10-15T04:44:17.939Z,0.40
2022-10-15T04:47:05.436Z,0.60
2022-10-15T04:49:44.698Z,0.45
2022-10-15T04:52:27.902Z,0.60
2022-10-15T04:54:58.769Z,0.50
2022-10-15T04:57:27.289Z,0.60
2022-10-15T04:59:57.650Z,0.80
2022-10-15T05:02:28.241Z,0.70
2022-10-15T05:05:08.696Z,0.93
2022-10-15T05:07:43.395Z,0.50
2022-10-15T05:10:10.729Z,0.90
2022-10-15T05:12:37.879Z,0.47
2022-10-15T05:15:07.042Z,0.65
2022-10-15T05:17:34.730Z,0.70
2022-10-15T05:20:02.401Z,1.05
2022-10-15T05:22:30.816Z,0.50
2022-10-15T05:25:00.280Z,0.68
2022-10-15T05:27:38.109Z,0.80
2022-10-15T05:30:06.922Z,0.40
2022-10-15T05:32:39.177Z,0.70
2022-10-15T05:35:10.541Z,0.60
2022-10-15T05:37:52.876Z,0.77
2022-10-15T05:40:22.021Z,0.60
2022-10-15T05:43:03.456Z,0.50
2022-10-15T05:45:31.094Z,0.70
2022-10-15T05:48:03.541Z,0.80
2022-10-15T05:50:30.777Z,0.40
2022-10-15T05:52:59.116Z,0.52
2022-10-15T05:55:38.188Z,0.50
2022-10-15T05:58:05.661Z,0.60
2022-10-15T06:00:33.229Z,0.70
2022-10-15T06:03:00.307Z,1.10
2022-10-15T06:05:27.562Z,0.77
2022-10-15T06:07:54.744Z,1.27
2022-10-15T06:10:21.797Z,0.70
2022-10-15T06:12:50.914Z,0.40
2022-10-15T06:15:19.539Z,0.55
2022-10-15T06:17:46.667Z,1.27
2022-10-15T06:20:14.075Z,0.93
2022-10-15T06:22:41.160Z,0.55
2022-10-15T06:25:08.876Z,0.65
2022-10-15T06:27:36.114Z,0.65
2022-10-15T06:30:03.853Z,0.90
2022-10-15T06:32:31.105Z,0.80
2022-10-15T06:34:58.181Z,0.98
2022-10-15T06:37:26.451Z,0.95
2022-10-15T06:39:55.076Z,1.00
2022-10-15T06:42:22.205Z,1.23
2022-10-15T06:44:49.447Z,0.80
2022-10-15T06:47:17.367Z,1.08
2022-10-15T06:49:47.549Z,1.33
2022-10-15T06:52:14.689Z,1.05
2022-10-15T06:54:41.938Z,1.00
2022-10-15T06:57:11.485Z,1.30
2022-10-15T06:59:41.291Z,1.45
2022-10-15T07:02:14.252Z,1.45
2022-10-15T07:04:41.413Z,2.00
2022-10-15T07:07:08.469Z,0.93
2022-10-15T07:09:36.887Z,1.30
2022-10-15T07:12:05.622Z,1.10
2022-10-15T07:14:32.759Z,1.23
2022-10-15T07:16:59.909Z,1.60
2022-10-15T07:19:28.522Z,1.75
2022-10-15T07:21:55.666Z,0.98
2022-10-15T07:24:22.802Z,1.50
2022-10-15T07:26:50.161Z,1.65
2022-10-15T07:29:17.356Z,1.10
2022-10-15T07:31:47.013Z,1.05
2022-10-15T07:34:16.760Z,1.45
2022-10-15T07:36:44.330Z,1.30
2022-10-15T07:39:11.781Z,0.95
2022-10-15T07:41:38.896Z,1.27
2022-10-15T07:44:06.160Z,1.20
2022-10-15T07:46:33.270Z,1.20
2022-10-15T07:49:00.594Z,0.80
2022-10-15T07:51:27.697Z,0.70
2022-10-15T07:53:55.525Z,0.70
2022-10-15T07:56:22.647Z,1.08
2022-10-15T07:58:52.040Z,0.95
2022-10-15T08:01:21.104Z,0.85
2022-10-15T08:03:48.542Z,1.60
2022-10-15T08:06:19.180Z,0.90
2022-10-15T08:08:46.431Z,1.20
2022-10-15T08:11:16.360Z,1.17
2022-10-15T08:13:47.209Z,2.65
2022-10-15T08:16:15.680Z,2.47
2022-10-15T08:18:43.734Z,2.45
2022-10-15T08:21:11.809Z,2.70
2022-10-15T08:23:39.189Z,3.60
2022-10-15T08:26:06.335Z,3.55
2022-10-15T08:28:34.970Z,2.05
2022-10-15T08:31:05.499Z,2.83
2022-10-15T08:33:35.090Z,2.40
2022-10-15T08:36:04.536Z,1.92
2022-10-15T08:38:32.141Z,2.22
2022-10-15T08:41:01.011Z,1.85
2022-10-15T08:43:37.649Z,1.75
2022-10-15T08:46:18.674Z,1.70
2022-10-15T08:48:53.605Z,2.05
2022-10-15T08:51:25.448Z,1.92
2022-10-15T08:53:59.912Z,1.52
2022-10-15T08:56:49.471Z,1.23
2022-10-15T08:59:31.776Z,1.40
2022-10-15T09:02:16.439Z,1.48
2022-10-15T09:05:01.458Z,0.88
2022-10-15T09:07:43.013Z,1.00
2022-10-15T09:10:23.362Z,1.00
2022-10-15T09:13:05.787Z,0.98
2022-10-15T09:15:38.019Z,1.00
2022-10-15T09:18:10.262Z,1.42
2022-10-15T09:20:38.097Z,1.50
2022-10-15T09:23:17.164Z,1.30
2022-10-15T09:25:49.811Z,1.30
2022-10-15T09:28:20.763Z,0.77
2022-10-15T09:30:53.076Z,1.20
2022-10-15T09:33:23.018Z,1.98
2022-10-15T09:36:19.322Z,1.30
2022-10-15T09:38:52.919Z,1.33
2022-10-15T09:41:49.127Z,1.00
2022-10-15T09:44:21.042Z,0.70
2022-10-15T09:46:51.389Z,1.00
2022-10-15T09:49:25.882Z,1.20
2022-10-15T09:51:54.085Z,0.90
2022-10-15T09:54:29.005Z,0.95
2022-10-15T09:56:57.296Z,1.40
2022-10-15T09:59:25.817Z,0.70
2022-10-15T10:05:31.353Z,1.15
2022-10-15T10:08:09.008Z,1.10
2022-10-15T10:10:37.626Z,0.88
2022-10-15T10:13:21.525Z,0.90
2022-10-15T10:15:56.064Z,0.52
2022-10-15T10:18:26.617Z,0.60
2022-10-15T10:21:00.114Z,0.50
2022-10-15T10:23:31.681Z,0.50
2022-10-15T10:26:00.236Z,0.60
2022-10-15T10:28:31.704Z,0.70
2022-10-15T10:31:00.354Z,0.60
2022-10-15T10:33:29.172Z,0.70
2022-10-15T10:35:57.285Z,0.63
2022-10-15T10:38:38.933Z,0.65
2022-10-15T10:41:10.064Z,0.70
2022-10-15T10:43:52.955Z,0.70
2022-10-15T10:46:22.899Z,0.60
2022-10-15T10:48:54.182Z,0.82
2022-10-15T10:51:24.406Z,0.75
2022-10-15T10:54:01.177Z,0.65
2022-10-15T10:56:35.140Z,0.50
2022-10-15T10:59:22.556Z,0.50
2022-10-15T11:01:50.838Z,0.50
2022-10-15T11:04:27.031Z,0.60
2022-10-15T11:07:26.275Z,0.50
2022-10-15T11:10:14.095Z,0.50
2022-10-15T11:12:52.249Z,0.40
2022-10-15T11:15:32.198Z,0.50
2022-10-15T11:18:11.232Z,0.50
2022-10-15T11:20:59.715Z,0.50
2022-10-15T11:23:39.134Z,0.40
2022-10-15T11:26:37.136Z,0.60
2022-10-15T11:29:04.600Z,0.50
2022-10-15T11:32:01.671Z,0.50
2022-10-15T11:35:08.387Z,0.35
2022-10-15T11:38:01.436Z,0.40
2022-10-15T11:40:39.403Z,0.40
2022-10-15T11:43:25.327Z,0.35
2022-10-15T11:46:25.489Z,0.40
2022-10-15T11:49:18.715Z,0.50
2022-10-15T11:52:05.167Z,0.40
2022-10-15T11:55:09.641Z,0.43
2022-10-15T11:57:40.284Z,0.50
2022-10-15T12:00:34.557Z,0.40
2022-10-15T12:03:13.844Z,0.40
2022-10-15T12:05:49.174Z,0.40
2022-10-15T12:08:18.173Z,0.45
2022-10-15T12:10:58.492Z,0.43
2022-10-15T12:13:55.753Z,0.30
2022-10-15T12:16:39.118Z,0.30
2022-10-15T12:19:19.377Z,0.40
2022-10-15T12:21:57.235Z,0.45
2022-10-15T12:24:40.820Z,0.40
2022-10-15T12:27:20.359Z,0.30
2022-10-15T12:29:50.744Z,0.30
2022-10-15T12:32:26.350Z,0.30
2022-10-15T12:34:59.741Z,0.50
2022-10-15T12:37:34.703Z,0.45
2022-10-15T12:40:25.723Z,0.52
2022-10-15T12:43:02.717Z,0.50
2022-10-15T12:45:42.243Z,0.30
2022-10-15T12:48:09.381Z,0.40
2022-10-15T12:50:37.494Z,0.70
2022-10-15T12:53:28.898Z,1.00
2022-10-15T12:56:24.424Z,0.60
2022-10-15T12:58:57.639Z,1.33
2022-10-15T13:01:28.859Z,0.50
2022-10-15T13:03:59.941Z,0.60
2022-10-15T13:06:33.221Z,0.63
2022-10-15T13:09:12.734Z,0.50
2022-10-15T13:14:25.320Z,0.50
2022-10-15T13:16:56.754Z,0.60
2022-10-15T13:19:35.422Z,0.50
2022-10-15T13:22:05.551Z,0.50
2022-10-15T13:24:43.793Z,0.40
2022-10-15T13:27:27.102Z,0.30
2022-10-15T13:30:00.693Z,0.50
2022-10-15T13:32:31.443Z,0.50
2022-10-15T13:35:01.193Z,0.60
2022-10-15T13:37:34.912Z,0.60
2022-10-15T13:40:07.613Z,0.40
2022-10-15T13:42:36.160Z,0.70
2022-10-15T13:45:18.043Z,0.45
2022-10-15T13:47:50.899Z,0.30
2022-10-15T13:50:26.982Z,0.40
2022-10-15T13:53:11.120Z,0.50
2022-10-15T13:55:41.824Z,0.40
2022-10-15T13:58:22.381Z,0.30
2022-10-15T14:01:09.155Z,0.45
2022-10-15T14:03:39.419Z,0.40
2022-10-15T14:06:19.733Z,0.50
2022-10-15T14:08:55.992Z,1.17
2022-10-15T14:11:24.707Z,0.60
2022-10-15T14:13:53.919Z,0.50
2022-10-15T14:16:45.766Z,0.50
2022-10-15T14:19:19.663Z,0.52
2022-10-15T14:21:48.786Z,0.60
2022-10-15T14:24:21.503Z,0.50
2022-10-15T14:26:49.912Z,0.77
2022-10-15T14:29:22.390Z,0.50
2022-10-15T14:31:55.177Z,0.40
2022-10-15T14:34:35.943Z,0.47
2022-10-15T14:37:24.079Z,1.30
2022-10-15T14:40:08.655Z,1.48
2022-10-15T14:42:47.947Z,1.25
2022-10-15T14:45:18.684Z,0.70
2022-10-15T14:47:51.479Z,0.90
2022-10-15T14:50:19.801Z,1.90
2022-10-15T14:52:52.949Z,1.17
2022-10-15T14:55:31.662Z,0.75
2022-10-15T14:58:00.991Z,0.90
2022-10-15T15:00:33.540Z,0.80
2022-10-15T15:03:05.399Z,0.80
2022-10-15T15:05:47.801Z,1.15
2022-10-15T15:08:15.758Z,0.60
2022-10-15T15:10:44.444Z,0.77
2022-10-15T15:13:14.175Z,0.85
2022-10-15T15:15:42.271Z,1.42
2022-10-15T15:18:11.212Z,1.30
2022-10-15T15:20:40.415Z,1.10
2022-10-15T15:23:10.364Z,0.70
2022-10-15T15:25:37.632Z,1.23
2022-10-15T15:28:06.827Z,0.82
2022-10-15T15:30:34.987Z,0.93
2022-10-15T15:33:02.258Z,1.30
2022-10-15T15:35:51.085Z,1.10
2022-10-15T15:38:24.092Z,0.80
2022-10-15T15:40:51.629Z,0.60
2022-10-15T15:43:19.566Z,0.80
2022-10-15T15:45:47.600Z,1.20
2022-10-15T15:48:14.775Z,0.85
2022-10-15T15:50:42.137Z,1.05
2022-10-15T15:53:12.381Z,0.52
2022-10-15T15:55:40.139Z,0.75
2022-10-15T15:58:08.086Z,0.57
2022-10-15T16:00:35.353Z,0.95
2022-10-15T16:03:02.533Z,1.13
2022-10-15T16:05:29.622Z,0.82
2022-10-15T16:07:56.986Z,1.55
2022-10-15T16:10:24.213Z,2.00
2022-10-15T16:12:51.482Z,1.13
2022-10-15T16:15:19.011Z,1.00
2022-10-15T16:17:46.190Z,0.80
2022-10-15T16:20:13.651Z,0.90
2022-10-15T16:22:41.115Z,1.73
2022-10-15T16:25:09.302Z,2.08
2022-10-15T16:27:36.604Z,2.00
2022-10-15T16:30:04.356Z,1.30
2022-10-15T16:32:31.653Z,0.90
2022-10-15T16:34:58.823Z,1.00
2022-10-15T16:37:26.095Z,0.80
2022-10-15T16:39:53.422Z,0.90
2022-10-15T16:42:20.564Z,0.95
2022-10-15T16:44:47.753Z,1.40
2022-10-15T16:47:15.195Z,1.00
2022-10-15T16:49:43.053Z,0.85
2022-10-15T16:52:11.246Z,1.00
2022-10-15T16:54:38.764Z,1.02
2022-10-15T16:57:06.231Z,1.45
2022-10-15T16:59:33.505Z,1.02
2022-10-15T17:02:01.511Z,1.30
2022-10-15T17:04:29.035Z,1.10
2022-10-15T17:06:56.165Z,1.30
2022-10-15T17:09:23.960Z,1.23
2022-10-15T17:11:52.224Z,1.17
2022-10-15T17:14:20.404Z,1.15
2022-10-15T17:16:50.123Z,1.05
2022-10-15T17:19:23.942Z,1.92
2022-10-15T17:21:55.587Z,1.10
2022-10-15T17:24:22.837Z,1.83
2022-10-15T17:26:50.096Z,2.28
2022-10-15T17:29:20.734Z,1.25
2022-10-15T17:31:49.402Z,1.88
2022-10-15T17:34:17.303Z,1.15
2022-10-15T17:36:47.461Z,1.52
2022-10-15T17:39:19.827Z,1.30
2022-10-15T17:41:47.522Z,1.02
2022-10-15T17:44:14.994Z,1.60
2022-10-15T17:46:42.392Z,1.60
2022-10-15T17:49:11.244Z,1.23
2022-10-15T17:51:39.804Z,1.67
2022-10-15T17:54:07.038Z,1.25
2022-10-15T17:56:36.500Z,1.20
2022-10-15T17:59:06.675Z,2.55
2022-10-15T18:04:23.746Z,2.53
2022-10-15T18:06:51.065Z,1.88
2022-10-15T18:09:28.388Z,1.38
2022-10-15T18:12:00.644Z,1.80
2022-10-15T18:14:29.718Z,1.58
2022-10-15T18:16:57.127Z,1.10
2022-10-15T18:19:26.577Z,1.75
2022-10-15T18:21:54.249Z,1.30
2022-10-15T18:24:23.328Z,1.35
2022-10-15T18:26:51.415Z,2.20
2022-10-15T18:29:19.033Z,1.58
2022-10-15T18:31:53.427Z,1.25
2022-10-15T18:34:22.435Z,1.33
2022-10-15T18:36:49.553Z,3.75
2022-10-15T18:39:16.805Z,2.65
2022-10-15T18:44:16.909Z,1.50
2022-10-15T18:46:45.674Z,1.75
2022-10-15T18:49:14.403Z,1.13
2022-10-15T18:51:42.315Z,2.00
2022-10-15T18:54:11.093Z,2.83
2022-10-15T18:56:38.708Z,1.05
2022-10-15T18:59:05.832Z,2.20
2022-10-15T19:01:39.171Z,3.05
2022-10-15T19:04:10.014Z,1.80
2022-10-15T19:06:46.975Z,2.58
2022-10-15T19:09:17.113Z,2.30
2022-10-15T19:11:46.689Z,2.13
2022-10-15T19:14:15.732Z,2.65
2022-10-15T19:16:44.574Z,2.70
2022-10-15T19:19:16.187Z,1.48
2022-10-15T19:21:48.196Z,1.90
2022-10-15T19:24:17.456Z,1.85
2022-10-15T19:26:44.790Z,1.20
2022-10-15T19:29:12.206Z,1.70
2022-10-15T19:31:42.226Z,2.53
2022-10-15T19:34:10.477Z,1.88
2022-10-15T19:36:44.126Z,1.92
2022-10-15T19:39:15.723Z,2.22
2022-10-15T19:41:44.649Z,1.63
2022-10-15T19:44:13.952Z,1.67
2022-10-15T19:46:41.640Z,1.77
2022-10-15T19:49:11.894Z,2.33
2022-10-15T19:51:41.920Z,1.52
2022-10-15T19:54:10.230Z,1.33
2022-10-15T19:56:37.761Z,2.00
2022-10-15T19:59:05.960Z,1.73
2022-10-15T20:01:33.911Z,1.67
2022-10-15T20:04:05.834Z,1.65
2022-10-15T20:06:35.380Z,1.75
2022-10-15T20:09:08.972Z,1.80
2022-10-15T20:11:38.116Z,1.17
2022-10-15T20:14:12.608Z,1.23
2022-10-15T20:16:41.781Z,0.90
2022-10-15T20:19:10.298Z,1.10
2022-10-15T20:21:37.789Z,1.67
2022-10-15T20:24:05.324Z,1.30
2022-10-15T20:26:33.237Z,1.20
2022-10-15T20:29:03.277Z,1.20
2022-10-15T20:31:33.378Z,1.30
2022-10-15T20:34:01.262Z,1.35
2022-10-15T20:36:31.016Z,1.83
2022-10-15T20:39:00.827Z,1.40
2022-10-15T20:41:28.822Z,1.00
2022-10-15T20:43:57.887Z,1.30
2022-10-15T20:46:39.869Z,1.10
2022-10-15T20:51:41.938Z,1.42
2022-10-15T20:54:12.039Z,1.40
2022-10-15T20:56:40.292Z,1.10
2022-10-15T20:59:07.556Z,1.15
2022-10-15T21:01:35.961Z,1.10
2022-10-15T21:04:04.663Z,0.80
2022-10-15T21:06:32.874Z,0.98
2022-10-15T21:08:59.984Z,0.82
2022-10-15T21:11:27.439Z,1.35
2022-10-15T21:13:56.727Z,0.80
2022-10-15T21:16:28.393Z,1.27
2022-10-15T21:18:56.423Z,0.88
2022-10-15T21:21:37.271Z,0.82
2022-10-15T21:24:04.664Z,1.10
2022-10-15T21:26:32.084Z,0.70
2022-10-15T21:29:00.569Z,1.33
2022-10-15T21:31:28.348Z,1.20
2022-10-15T21:33:57.684Z,1.17
2022-10-15T21:36:27.158Z,0.98
2022-10-15T21:38:57.048Z,1.02
2022-10-15T21:41:25.833Z,0.68
2022-10-15T21:43:53.573Z,0.60
2022-10-15T21:46:21.221Z,0.80
2022-10-15T21:48:48.895Z,0.93
2022-10-15T21:51:24.673Z,0.73
2022-10-15T21:53:52.819Z,0.70
2022-10-15T21:56:22.317Z,0.80
2022-10-15T21:58:49.772Z,0.77
2022-10-15T22:01:25.379Z,0.70
2022-10-15T22:03:57.753Z,0.70
2022-10-15T22:06:28.467Z,1.08
2022-10-15T22:08:56.457Z,0.80
2022-10-15T22:13:56.674Z,0.80
2022-10-15T22:16:25.663Z,0.63
2022-10-15T22:18:53.479Z,0.60
2022-10-15T22:21:26.133Z,0.80
2022-10-15T22:23:56.695Z,0.60
2022-10-15T22:26:27.197Z,0.70
2022-10-15T22:28:56.579Z,0.50
2022-10-15T22:31:24.788Z,0.52
2022-10-15T22:33:52.540Z,0.63
2022-10-15T22:36:31.180Z,0.73
2022-10-15T22:39:05.392Z,0.60
2022-10-15T22:41:36.408Z,0.50
2022-10-15T22:44:04.011Z,0.77
2022-10-15T22:46:36.578Z,0.50
2022-10-15T22:49:05.339Z,0.75
2022-10-15T22:51:32.781Z,0.80
2022-10-15T22:54:00.815Z,0.93
2022-10-15T22:56:29.269Z,0.70
2022-10-15T22:58:57.762Z,0.43
2022-10-15T23:01:30.644Z,0.60
2022-10-15T23:04:04.193Z,0.68
2022-10-15T23:06:33.733Z,0.50
2022-10-15T23:09:01.988Z,0.50
2022-10-15T23:11:32.342Z,0.52
2022-10-15T23:14:02.585Z,0.50
2022-10-15T23:16:32.245Z,0.63
2022-10-15T23:19:05.383Z,0.40
2022-10-15T23:21:40.809Z,0.50
2022-10-15T23:24:08.623Z,0.70
2022-10-15T23:26:38.101Z,0.65
2022-10-15T23:29:06.965Z,0.40
2022-10-15T23:31:36.049Z,0.80
2022-10-15T23:34:04.233Z,0.40
2022-10-15T23:36:32.107Z,0.65
2022-10-15T23:39:01.503Z,0.60
2022-10-15T23:41:29.867Z,0.60
2022-10-15T23:43:57.126Z,0.52
2022-10-15T23:46:24.582Z,0.60
2022-10-15T23:48:51.875Z,0.40
2022-10-15T23:51:22.159Z,0.50
2022-10-15T23:53:50.478Z,0.60
2022-10-15T23:56:18.170Z,0.70
2022-10-15T23:58:53.980Z,0.65
